createdAt,value
2023-03-05T00:00:15.851Z,-3.29
2023-03-05T00:03:24.067Z,-3.35
2023-03-05T00:06:12.099Z,-3.39
2023-03-05T00:09:00.575Z,-3.43
2023-03-05T00:11:49.075Z,-3.47
2023-03-05T00:14:36.984Z,-3.55
2023-03-05T00:17:25.193Z,-3.54
2023-03-05T00:20:14.794Z,-3.56
2023-03-05T00:23:03.075Z,-3.56
2023-03-05T00:25:51.385Z,-3.56
2023-03-05T00:28:39.882Z,-3.52
2023-03-05T00:31:31.349Z,-3.45
2023-03-05T00:34:20.602Z,-3.36
2023-03-05T00:37:08.409Z,-3.30
2023-03-05T00:39:56.543Z,-3.23
2023-03-05T00:42:44.888Z,-3.18
2023-03-05T00:45:33.598Z,-3.14
2023-03-05T00:48:22.671Z,-3.13
2023-03-05T00:51:10.942Z,-3.15
2023-03-05T00:53:59.010Z,-3.17
2023-03-05T00:56:47.756Z,-3.19
2023-03-05T00:59:35.627Z,-3.22
2023-03-05T01:02:23.532Z,-3.26
2023-03-05T01:05:14.663Z,-3.29
2023-03-05T01:08:03.325Z,-3.31
2023-03-05T01:10:52.060Z,-3.35
2023-03-05T01:13:41.302Z,-3.38
2023-03-05T01:16:29.602Z,-3.41
2023-03-05T01:19:18.551Z,-3.44
2023-03-05T01:22:06.650Z,-3.48
2023-03-05T01:24:54.912Z,-3.51
2023-03-05T01:27:43.277Z,-3.55
2023-03-05T01:30:31.576Z,-3.58
2023-03-05T01:33:20.466Z,-3.61
2023-03-05T01:36:16.007Z,-3.64
2023-03-05T01:39:04.072Z,-3.67
2023-03-05T01:41:52.050Z,-3.69
2023-03-05T01:45:12.917Z,-3.71
2023-03-05T01:48:01.179Z,-3.73
2023-03-05T01:50:50.024Z,-3.73
2023-03-05T01:53:38.267Z,-3.75
2023-03-05T01:56:29.442Z,-3.74
2023-03-05T01:59:18.480Z,-3.74
2023-03-05T02:02:08.317Z,-3.73
2023-03-05T02:05:04.184Z,-3.74
2023-03-05T02:07:52.278Z,-3.75
2023-03-05T02:10:47.677Z,-3.76
2023-03-05T02:13:40.760Z,-3.77
2023-03-05T02:16:37.039Z,-3.77
2023-03-05T02:19:25.703Z,-3.78
2023-03-05T02:22:19.304Z,-3.79
2023-03-05T02:25:21.738Z,-3.80
2023-03-05T02:28:30.459Z,-3.81
2023-03-05T02:31:24.390Z,-3.81
2023-03-05T02:34:12.605Z,-3.80
2023-03-05T02:37:00.387Z,-3.80
2023-03-05T02:39:48.523Z,-3.80
2023-03-05T02:42:37.049Z,-3.78
2023-03-05T02:45:25.473Z,-3.73
2023-03-05T02:48:14.161Z,-3.68
2023-03-05T02:51:04.951Z,-3.62
2023-03-05T02:53:53.649Z,-3.54
2023-03-05T02:56:43.720Z,-3.46
2023-03-05T02:59:32.172Z,-3.39
2023-03-05T03:02:20.848Z,-3.35
2023-03-05T03:05:09.946Z,-3.31
2023-03-05T03:07:58.202Z,-3.28
2023-03-05T03:10:46.130Z,-3.24
2023-03-05T03:13:34.727Z,-3.17
2023-03-05T03:16:23.152Z,-3.09
2023-03-05T03:19:12.012Z,-3.00
2023-03-05T03:22:00.216Z,-2.91
2023-03-05T03:24:48.889Z,-2.84
2023-03-05T03:27:37.443Z,-2.80
2023-03-05T03:30:25.675Z,-2.77
2023-03-05T03:33:13.946Z,-2.78
2023-03-05T03:36:03.784Z,-2.77
2023-03-05T03:38:52.073Z,-2.77
2023-03-05T03:41:46.429Z,-2.78
2023-03-05T03:44:34.608Z,-2.81
2023-03-05T03:47:22.804Z,-2.85
2023-03-05T03:50:11.755Z,-2.91
2023-03-05T03:52:59.850Z,-2.97
2023-03-05T03:55:48.086Z,-3.02
2023-03-05T03:58:36.603Z,-3.11
2023-03-05T04:01:24.846Z,-3.18
2023-03-05T04:04:13.793Z,-3.25
2023-03-05T04:07:01.752Z,-3.29
2023-03-05T04:09:50.404Z,-3.31
2023-03-05T04:12:38.695Z,-3.33
2023-03-05T04:15:26.873Z,-3.33
2023-03-05T04:18:14.953Z,-3.34
2023-03-05T04:21:03.733Z,-3.34
2023-03-05T04:23:51.671Z,-3.32
2023-03-05T04:26:39.999Z,-3.31
2023-03-05T04:29:27.682Z,-3.30
2023-03-05T04:32:23.282Z,-3.30
2023-03-05T04:35:11.453Z,-3.33
2023-03-05T04:37:59.403Z,-3.37
2023-03-05T04:40:48.060Z,-3.43
2023-03-05T04:43:36.394Z,-3.48
2023-03-05T04:46:24.644Z,-3.54
2023-03-05T04:49:12.927Z,-3.61
2023-03-05T04:52:01.091Z,-3.68
2023-03-05T04:54:49.195Z,-3.74
2023-03-05T04:57:37.713Z,-3.81
2023-03-05T05:00:25.879Z,-3.86
2023-03-05T05:03:14.393Z,-3.90
2023-03-05T05:06:03.093Z,-3.96
2023-03-05T05:08:51.596Z,-3.99
2023-03-05T05:11:40.667Z,-4.03
2023-03-05T05:14:28.486Z,-4.05
2023-03-05T05:17:16.466Z,-4.06
2023-03-05T05:20:07.278Z,-4.06
2023-03-05T05:22:55.480Z,-4.06
2023-03-05T05:25:43.905Z,-4.04
2023-03-05T05:28:32.556Z,-4.04
2023-03-05T05:31:21.413Z,-4.02
2023-03-05T05:34:11.455Z,-4.03
2023-03-05T05:36:59.617Z,-4.03
2023-03-05T05:39:50.328Z,-4.04
2023-03-05T05:42:38.459Z,-4.06
2023-03-05T05:45:26.540Z,-4.07
2023-03-05T05:48:14.663Z,-4.08
2023-03-05T05:51:12.855Z,-4.10
2023-03-05T05:54:01.607Z,-4.12
2023-03-05T05:56:49.712Z,-4.13
2023-03-05T05:59:38.378Z,-4.13
2023-03-05T06:02:27.912Z,-4.17
2023-03-05T06:05:16.194Z,-4.12
2023-03-05T06:08:05.165Z,-4.11
2023-03-05T06:10:56.446Z,-4.08
2023-03-05T06:13:45.226Z,-4.05
2023-03-05T06:16:34.101Z,-4.01
2023-03-05T06:19:22.258Z,-3.94
2023-03-05T06:22:10.558Z,-3.86
2023-03-05T06:24:58.735Z,-3.77
2023-03-05T06:27:47.094Z,-3.69
2023-03-05T06:30:35.120Z,-3.60
2023-03-05T06:33:23.334Z,-3.55
2023-03-05T06:36:16.833Z,-3.50
2023-03-05T06:39:05.626Z,-3.44
2023-03-05T06:41:53.757Z,-3.37
2023-03-05T06:44:42.057Z,-3.30
2023-03-05T06:47:30.555Z,-3.15
2023-03-05T06:50:18.530Z,-2.95
2023-03-05T06:53:06.593Z,-2.79
2023-03-05T06:55:55.235Z,-2.70
2023-03-05T06:58:49.082Z,-2.62
2023-03-05T07:01:37.611Z,-2.49
2023-03-05T07:04:26.592Z,-2.28
2023-03-05T07:07:15.081Z,-2.05
2023-03-05T07:10:04.781Z,-1.58
2023-03-05T07:12:53.052Z,-0.00
2023-03-05T07:15:42.164Z,1.31
2023-03-05T07:18:30.273Z,2.92
2023-03-05T07:21:23.957Z,4.39
2023-03-05T07:24:12.780Z,6.31
2023-03-05T07:27:00.995Z,7.83
2023-03-05T07:29:49.069Z,9.23
2023-03-05T07:32:37.533Z,10.60
2023-03-05T07:35:25.636Z,11.28
2023-03-05T07:38:14.120Z,11.82
2023-03-05T07:41:09.040Z,12.40
2023-03-05T07:43:57.462Z,12.87
2023-03-05T07:46:45.946Z,13.52
2023-03-05T07:49:35.403Z,14.15
2023-03-05T07:52:23.639Z,14.63
2023-03-05T07:55:12.738Z,14.87
2023-03-05T07:58:01.470Z,15.05
2023-03-05T08:00:49.821Z,15.37
2023-03-05T08:03:38.031Z,15.75
2023-03-05T08:06:26.150Z,15.55
2023-03-05T08:09:14.998Z,15.51
2023-03-05T08:12:04.589Z,15.83
2023-03-05T08:14:52.801Z,16.12
2023-03-05T08:17:40.889Z,16.38
2023-03-05T08:20:29.129Z,16.65
2023-03-05T08:23:17.493Z,16.67
2023-03-05T08:26:23.127Z,16.95
2023-03-05T08:29:11.498Z,17.09
2023-03-05T08:31:59.580Z,17.42
2023-03-05T08:34:47.799Z,17.17
2023-03-05T08:37:36.937Z,16.10
2023-03-05T08:40:25.263Z,16.09
2023-03-05T08:43:13.781Z,14.15
2023-03-05T08:46:03.736Z,12.67
2023-03-05T08:48:52.289Z,11.16
2023-03-05T08:51:41.745Z,9.67
2023-03-05T08:54:29.995Z,8.68
2023-03-05T08:57:18.467Z,7.62
2023-03-05T09:00:12.780Z,6.83
2023-03-05T09:03:01.030Z,6.27
2023-03-05T09:05:51.514Z,6.31
2023-03-05T09:08:41.152Z,6.45
2023-03-05T09:11:29.048Z,6.38
2023-03-05T09:14:17.074Z,7.08
2023-03-05T09:17:06.208Z,7.70
2023-03-05T09:19:56.923Z,9.38
2023-03-05T09:22:44.945Z,9.62
2023-03-05T09:25:33.325Z,10.47
2023-03-05T09:28:21.288Z,11.36
2023-03-05T09:31:11.456Z,12.34
2023-03-05T09:33:59.989Z,13.28
2023-03-05T09:36:48.691Z,13.50
2023-03-05T09:39:37.542Z,14.29
2023-03-05T09:42:33.072Z,14.55
2023-03-05T09:46:01.718Z,14.18
2023-03-05T09:49:13.481Z,13.70
2023-03-05T09:52:31.434Z,12.84
2023-03-05T09:55:44.883Z,12.53
2023-03-05T09:58:49.860Z,12.32
2023-03-05T10:01:44.875Z,13.29
2023-03-05T10:04:57.922Z,13.86
2023-03-05T10:07:55.520Z,14.25
2023-03-05T10:10:54.180Z,15.06
2023-03-05T10:13:45.529Z,14.61
2023-03-05T10:17:05.337Z,15.10
2023-03-05T10:20:17.862Z,16.29
2023-03-05T10:23:08.631Z,17.17
2023-03-05T10:26:27.003Z,17.53
2023-03-05T10:29:43.219Z,18.18
2023-03-05T10:33:08.362Z,18.29
2023-03-05T10:36:02.533Z,19.45
2023-03-05T10:39:05.249Z,19.84
2023-03-05T10:42:20.313Z,18.72
2023-03-05T10:45:28.515Z,18.17
2023-03-05T10:48:41.232Z,16.33
2023-03-05T10:51:49.928Z,15.20
2023-03-05T10:54:41.905Z,15.31
2023-03-05T10:57:32.364Z,16.18
2023-03-05T11:00:26.656Z,15.66
2023-03-05T11:03:14.713Z,13.88
2023-03-05T11:06:03.578Z,13.26
2023-03-05T11:08:51.411Z,13.55
2023-03-05T11:11:39.602Z,14.25
2023-03-05T11:14:31.458Z,15.20
2023-03-05T11:17:32.777Z,15.17
2023-03-05T11:20:27.403Z,13.95
2023-03-05T11:23:25.014Z,12.41
2023-03-05T11:26:13.244Z,10.97
2023-03-05T11:29:05.010Z,10.16
2023-03-05T11:31:54.312Z,9.36
2023-03-05T11:34:42.961Z,8.67
2023-03-05T11:37:33.309Z,7.74
2023-03-05T11:40:25.293Z,6.98
2023-03-05T11:43:20.677Z,7.67
2023-03-05T11:46:12.074Z,8.93
2023-03-05T11:49:00.743Z,9.66
2023-03-05T11:51:51.528Z,10.34
2023-03-05T11:55:03.389Z,11.00
2023-03-05T11:58:07.777Z,11.31
2023-03-05T12:00:57.026Z,11.67
2023-03-05T12:03:46.076Z,11.88
2023-03-05T12:07:04.400Z,12.37
2023-03-05T12:10:28.285Z,12.33
2023-03-05T12:13:22.163Z,12.08
2023-03-05T12:16:37.611Z,11.97
2023-03-05T12:19:55.980Z,12.08
2023-03-05T12:22:43.584Z,12.04
2023-03-05T12:25:51.703Z,11.82
2023-03-05T12:28:41.765Z,11.61
2023-03-05T12:31:38.408Z,11.56
2023-03-05T12:34:40.590Z,11.30
2023-03-05T12:37:27.630Z,10.89
2023-03-05T12:40:33.933Z,10.37
2023-03-05T12:43:31.369Z,9.74
2023-03-05T12:46:32.441Z,8.83
2023-03-05T12:49:22.897Z,8.41
2023-03-05T12:52:24.386Z,7.91
2023-03-05T12:55:35.243Z,7.34
2023-03-05T12:58:45.435Z,6.65
2023-03-05T13:01:48.131Z,6.15
2023-03-05T13:04:41.377Z,5.91
2023-03-05T13:07:31.914Z,5.52
2023-03-05T13:10:29.752Z,5.06
2023-03-05T13:13:16.405Z,4.84
2023-03-05T13:16:04.740Z,4.63
2023-03-05T13:18:53.590Z,4.46
2023-03-05T13:21:40.508Z,4.36
2023-03-05T13:24:29.384Z,4.20
2023-03-05T13:27:31.737Z,4.16
2023-03-05T13:30:28.285Z,4.01
2023-03-05T13:33:22.362Z,3.92
2023-03-05T13:36:15.605Z,3.80
2023-03-05T13:39:05.127Z,3.62
2023-03-05T13:42:16.788Z,3.42
2023-03-05T13:45:29.914Z,3.19
2023-03-05T13:48:19.582Z,3.14
2023-03-05T13:51:08.067Z,3.13
2023-03-05T13:53:55.146Z,3.12
2023-03-05T13:57:00.512Z,3.04
2023-03-05T14:00:48.467Z,2.86
2023-03-05T14:03:35.463Z,2.66
2023-03-05T14:06:27.674Z,2.56
2023-03-05T14:09:31.859Z,2.52
2023-03-05T14:12:42.068Z,2.41
2023-03-05T14:15:33.007Z,2.37
2023-03-05T14:18:21.186Z,2.30
2023-03-05T14:21:12.776Z,2.24
2023-03-05T14:24:12.160Z,2.13
2023-03-05T14:27:08.156Z,2.01
2023-03-05T14:29:55.170Z,1.98
2023-03-05T14:32:44.998Z,1.89
2023-03-05T14:35:34.966Z,1.80
2023-03-05T14:38:34.298Z,1.74
2023-03-05T14:41:42.063Z,1.65
2023-03-05T14:44:28.738Z,1.58
2023-03-05T14:47:15.643Z,1.54
2023-03-05T14:50:03.169Z,1.47
2023-03-05T14:52:55.502Z,1.42
2023-03-05T14:55:45.229Z,1.36
2023-03-05T14:58:34.889Z,1.29
2023-03-05T15:01:21.761Z,1.22
2023-03-05T15:04:09.012Z,1.13
2023-03-05T15:06:55.695Z,1.08
2023-03-05T15:09:42.569Z,1.05
2023-03-05T15:12:29.739Z,1.01
2023-03-05T15:15:17.884Z,0.95
2023-03-05T15:18:04.775Z,0.84
2023-03-05T15:20:52.501Z,0.74
2023-03-05T15:23:39.611Z,0.66
2023-03-05T15:26:26.595Z,0.58
2023-03-05T15:29:13.800Z,0.54
2023-03-05T15:32:24.288Z,0.47
2023-03-05T15:35:11.041Z,0.38
2023-03-05T15:37:58.101Z,0.30
2023-03-05T15:40:46.943Z,0.22
2023-03-05T15:43:33.454Z,0.13
2023-03-05T15:46:20.331Z,0.07
2023-03-05T15:49:07.347Z,0.00
2023-03-05T15:51:56.484Z,-0.08
2023-03-05T15:54:45.796Z,-0.15
2023-03-05T15:57:36.737Z,-0.25
2023-03-05T16:00:28.937Z,-0.35
2023-03-05T16:03:16.107Z,-0.41
2023-03-05T16:06:05.068Z,-0.48
2023-03-05T16:08:59.506Z,-0.57
2023-03-05T16:11:48.680Z,-0.65
2023-03-05T16:14:38.641Z,-0.73
2023-03-05T16:17:25.594Z,-0.81
2023-03-05T16:20:14.218Z,-0.89
2023-03-05T16:23:03.902Z,-0.98
2023-03-05T16:25:51.442Z,-1.05
2023-03-05T16:28:38.456Z,-1.13
2023-03-05T16:31:33.459Z,-1.22
2023-03-05T16:34:22.299Z,-1.29
2023-03-05T16:37:09.353Z,-1.35
2023-03-05T16:39:58.868Z,-1.41
2023-03-05T16:42:46.914Z,-1.48
2023-03-05T16:45:33.921Z,-1.54
2023-03-05T16:48:20.788Z,-1.60
2023-03-05T16:51:09.211Z,-1.66
2023-03-05T16:53:56.401Z,-1.72
2023-03-05T16:56:43.328Z,-1.78
2023-03-05T16:59:30.391Z,-1.82
2023-03-05T17:02:17.524Z,-1.88
2023-03-05T17:05:05.213Z,-1.93
2023-03-05T17:07:53.035Z,-1.98
2023-03-05T17:10:43.116Z,-2.03
2023-03-05T17:13:29.469Z,-2.07
2023-03-05T17:16:18.714Z,-2.10
2023-03-05T17:19:05.439Z,-2.13
2023-03-05T17:21:52.502Z,-2.14
2023-03-05T17:24:42.230Z,-2.14
2023-03-05T17:27:29.351Z,-2.16
2023-03-05T17:30:16.677Z,-2.17
2023-03-05T17:33:04.898Z,-2.19
2023-03-05T17:35:51.899Z,-2.21
2023-03-05T17:38:38.997Z,-2.23
2023-03-05T17:41:26.296Z,-2.25
2023-03-05T17:44:13.737Z,-2.27
2023-03-05T17:47:00.754Z,-2.30
2023-03-05T17:49:48.612Z,-2.34
2023-03-05T17:52:40.749Z,-2.35
2023-03-05T17:55:27.794Z,-2.38
2023-03-05T17:58:16.105Z,-2.41
2023-03-05T18:01:05.519Z,-2.43
2023-03-05T18:03:53.978Z,-2.45
2023-03-05T18:06:41.216Z,-2.48
2023-03-05T18:09:28.535Z,-2.49
2023-03-05T18:12:16.732Z,-2.49
2023-03-05T18:15:08.153Z,-2.50
2023-03-05T18:17:55.526Z,-2.50
2023-03-05T18:20:43.430Z,-2.52
2023-03-05T18:23:30.139Z,-2.53
2023-03-05T18:26:17.666Z,-2.54
2023-03-05T18:29:04.582Z,-2.56
2023-03-05T18:31:51.602Z,-2.56
2023-03-05T18:34:38.843Z,-2.56
2023-03-05T18:37:26.038Z,-2.58
2023-03-05T18:40:20.284Z,-2.59
2023-03-05T18:43:09.263Z,-2.60
2023-03-05T18:45:56.986Z,-2.60
2023-03-05T18:48:47.580Z,-2.61
2023-03-05T18:51:35.791Z,-2.62
2023-03-05T18:54:22.536Z,-2.62
2023-03-05T18:57:09.279Z,-2.61
2023-03-05T18:59:58.216Z,-2.61
2023-03-05T19:02:45.346Z,-2.61
2023-03-05T19:05:33.537Z,-2.62
2023-03-05T19:08:21.784Z,-2.63
2023-03-05T19:11:20.506Z,-2.64
2023-03-05T19:14:07.549Z,-2.66
2023-03-05T19:16:54.239Z,-2.68
2023-03-05T19:19:44.828Z,-2.69
2023-03-05T19:22:33.676Z,-2.72
2023-03-05T19:25:20.408Z,-2.74
2023-03-05T19:28:07.416Z,-2.75
2023-03-05T19:30:54.482Z,-2.76
2023-03-05T19:33:42.231Z,-2.79
2023-03-05T19:36:33.784Z,-2.80
2023-03-05T19:39:20.369Z,-2.81
2023-03-05T19:42:08.279Z,-2.81
2023-03-05T19:44:55.050Z,-2.81
2023-03-05T19:47:42.270Z,-2.80
2023-03-05T19:50:29.239Z,-2.79
2023-03-05T19:53:16.337Z,-2.78
2023-03-05T19:56:05.806Z,-2.76
2023-03-05T19:58:52.902Z,-2.77
2023-03-05T20:01:39.813Z,-2.77
2023-03-05T20:04:27.485Z,-2.77
2023-03-05T20:07:14.813Z,-2.77
2023-03-05T20:10:01.731Z,-2.77
2023-03-05T20:12:50.506Z,-2.77
2023-03-05T20:15:37.409Z,-2.79
2023-03-05T20:18:25.258Z,-2.80
2023-03-05T20:21:20.731Z,-2.81
2023-03-05T20:24:12.997Z,-2.82
2023-03-05T20:27:00.144Z,-2.84
2023-03-05T20:29:47.198Z,-2.86
2023-03-05T20:32:34.587Z,-2.88
2023-03-05T20:35:22.241Z,-2.91
2023-03-05T20:38:25.775Z,-2.90
2023-03-05T20:41:16.949Z,-2.90
2023-03-05T20:44:04.660Z,-2.89
2023-03-05T20:47:01.956Z,-2.90
2023-03-05T20:49:53.231Z,-2.90
2023-03-05T20:52:40.687Z,-2.91
2023-03-05T20:55:28.216Z,-2.93
2023-03-05T20:58:15.402Z,-2.95
2023-03-05T21:01:02.806Z,-2.98
2023-03-05T21:03:49.565Z,-3.01
2023-03-05T21:06:37.161Z,-3.04
2023-03-05T21:09:24.260Z,-3.09
2023-03-05T21:12:11.516Z,-3.14
2023-03-05T21:14:59.462Z,-3.17
2023-03-05T21:17:46.659Z,-3.20
2023-03-05T21:20:35.711Z,-3.24
2023-03-05T21:23:22.843Z,-3.27
2023-03-05T21:26:10.013Z,-3.31
2023-03-05T21:28:56.796Z,-3.34
2023-03-05T21:31:43.912Z,-3.36
2023-03-05T21:34:31.057Z,-3.36
2023-03-05T21:37:17.814Z,-3.35
2023-03-05T21:40:05.155Z,-3.34
2023-03-05T21:42:52.818Z,-3.33
2023-03-05T21:45:40.743Z,-3.32
2023-03-05T21:48:27.991Z,-3.31
2023-03-05T21:51:16.348Z,-3.31
2023-03-05T21:54:03.847Z,-3.32
2023-03-05T21:56:50.939Z,-3.34
2023-03-05T21:59:42.007Z,-3.37
2023-03-05T22:02:29.094Z,-3.40
2023-03-05T22:05:16.250Z,-3.44
2023-03-05T22:08:03.826Z,-3.46
2023-03-05T22:10:51.233Z,-3.48
2023-03-05T22:13:39.873Z,-3.49
2023-03-05T22:16:27.849Z,-3.50
2023-03-05T22:19:14.658Z,-3.50
2023-03-05T22:22:01.664Z,-3.50
2023-03-05T22:24:48.234Z,-3.50
2023-03-05T22:27:35.702Z,-3.49
2023-03-05T22:30:23.722Z,-3.47
2023-03-05T22:33:10.683Z,-3.47
2023-03-05T22:35:58.249Z,-3.45
2023-03-05T22:38:45.783Z,-3.45
2023-03-05T22:41:32.665Z,-3.45
2023-03-05T22:44:19.360Z,-3.47
2023-03-05T22:47:06.165Z,-3.48
2023-03-05T22:49:53.717Z,-3.51
2023-03-05T22:52:40.390Z,-3.54
2023-03-05T22:55:27.376Z,-3.56
2023-03-05T22:58:14.260Z,-3.57
2023-03-05T23:01:01.296Z,-3.60
2023-03-05T23:03:54.247Z,-3.62
2023-03-05T23:06:41.312Z,-3.61
2023-03-05T23:09:27.685Z,-3.60
2023-03-05T23:12:14.370Z,-3.58
2023-03-05T23:15:05.598Z,-3.55
2023-03-05T23:17:53.312Z,-3.53
2023-03-05T23:20:41.205Z,-3.53
2023-03-05T23:23:28.083Z,-3.54
2023-03-05T23:26:14.920Z,-3.55
2023-03-05T23:29:01.779Z,-3.55
2023-03-05T23:31:48.364Z,-3.56
2023-03-05T23:34:34.826Z,-3.58
2023-03-05T23:37:21.882Z,-3.62
2023-03-05T23:40:13.991Z,-3.65
2023-03-05T23:43:00.773Z,-3.66
2023-03-05T23:45:48.897Z,-3.67
2023-03-05T23:48:35.483Z,-3.68
2023-03-05T23:51:22.488Z,-3.69
2023-03-05T23:54:09.330Z,-3.69
2023-03-05T23:56:55.927Z,-3.68
2023-03-05T23:59:42.581Z,-3.65
